createdAt,value
2019-01-28T00:00:39.135Z,5.10
2019-01-28T00:03:14.107Z,5.10
2019-01-28T00:05:49.035Z,5.00
2019-01-28T00:08:23.830Z,5.10
2019-01-28T00:10:58.763Z,5.10
2019-01-28T00:13:33.639Z,4.90
2019-01-28T00:16:09.560Z,4.90
2019-01-28T00:18:44.435Z,4.80
2019-01-28T00:21:19.318Z,4.80
2019-01-28T00:23:54.179Z,4.90
2019-01-28T00:26:29.055Z,4.80
2019-01-28T00:29:04.463Z,5.00
2019-01-28T00:31:39.255Z,4.90
2019-01-28T00:34:14.031Z,5.00
2019-01-28T00:36:48.753Z,4.90
2019-01-28T00:39:23.510Z,4.80
2019-01-28T00:41:58.246Z,4.80
2019-01-28T00:44:33.118Z,4.80
2019-01-28T00:47:08.007Z,4.70
2019-01-28T00:49:42.722Z,4.70
2019-01-28T00:52:18.435Z,4.70
2019-01-28T00:54:53.258Z,4.70
2019-01-28T00:57:28.127Z,4.70
2019-01-28T01:00:03.055Z,4.60
2019-01-28T01:02:37.986Z,4.50
2019-01-28T01:05:12.953Z,4.50
2019-01-28T01:07:47.815Z,4.40
2019-01-28T01:10:22.667Z,4.50
2019-01-28T01:12:57.462Z,4.60
2019-01-28T01:15:32.186Z,4.60
2019-01-28T01:18:07.876Z,4.60
2019-01-28T01:20:42.724Z,4.60
2019-01-28T01:23:17.440Z,4.80
2019-01-28T01:25:52.168Z,4.80
2019-01-28T01:28:26.902Z,4.70
2019-01-28T01:31:01.872Z,4.60
2019-01-28T01:33:36.660Z,4.80
2019-01-28T01:36:11.391Z,4.80
2019-01-28T01:38:46.299Z,4.80
2019-01-28T01:41:21.120Z,4.70
2019-01-28T01:43:55.910Z,4.80
2019-01-28T01:46:30.662Z,4.80
2019-01-28T01:49:05.446Z,4.80
2019-01-28T01:51:40.178Z,4.70
2019-01-28T01:54:14.967Z,4.70
2019-01-28T01:56:49.766Z,4.80
2019-01-28T01:59:24.486Z,4.90
2019-01-28T02:01:59.215Z,4.90
2019-01-28T02:04:33.939Z,4.90
2019-01-28T02:07:08.879Z,4.90
2019-01-28T02:09:43.675Z,4.90
2019-01-28T02:12:18.431Z,4.80
2019-01-28T02:14:53.227Z,5.00
2019-01-28T02:17:28.040Z,4.90
2019-01-28T02:20:02.858Z,4.90
2019-01-28T02:22:38.875Z,4.90
2019-01-28T02:25:14.224Z,4.90
2019-01-28T02:27:49.034Z,4.90
2019-01-28T02:30:23.831Z,4.90
2019-01-28T02:32:58.566Z,5.00
2019-01-28T02:35:33.428Z,4.90
2019-01-28T02:38:08.267Z,4.90
2019-01-28T02:40:42.979Z,5.00
2019-01-28T02:43:17.791Z,5.10
2019-01-28T02:45:52.582Z,5.10
2019-01-28T02:48:27.319Z,5.10
2019-01-28T02:51:02.189Z,5.10
2019-01-28T02:53:37.183Z,5.10
2019-01-28T02:56:12.035Z,5.00
2019-01-28T02:58:46.770Z,5.10
2019-01-28T03:01:21.664Z,5.10
2019-01-28T03:03:56.478Z,5.00
2019-01-28T03:06:31.368Z,5.00
2019-01-28T03:09:07.838Z,5.00
2019-01-28T03:11:42.643Z,4.90
2019-01-28T03:14:17.480Z,5.00
2019-01-28T03:16:52.283Z,5.00
2019-01-28T03:19:27.019Z,4.90
2019-01-28T03:22:01.794Z,4.90
2019-01-28T03:24:36.599Z,4.90
2019-01-28T03:27:11.419Z,4.80
2019-01-28T03:29:46.234Z,4.80
2019-01-28T03:32:20.976Z,4.70
2019-01-28T03:34:55.708Z,4.60
2019-01-28T03:37:30.440Z,4.60
2019-01-28T03:40:08.331Z,4.60
2019-01-28T03:42:43.321Z,4.50
2019-01-28T03:45:19.340Z,4.50
2019-01-28T03:47:54.219Z,4.50
2019-01-28T03:50:29.026Z,4.50
2019-01-28T03:53:04.087Z,4.50
2019-01-28T03:55:38.883Z,4.40
2019-01-28T03:58:14.608Z,4.50
2019-01-28T04:00:49.356Z,4.30
2019-01-28T04:03:24.163Z,4.40
2019-01-28T04:05:58.978Z,4.40
2019-01-28T04:08:33.769Z,4.40
2019-01-28T04:11:08.652Z,4.40
2019-01-28T04:13:43.473Z,4.30
2019-01-28T04:16:18.250Z,4.30
2019-01-28T04:18:52.988Z,4.30
2019-01-28T04:21:27.999Z,4.30
2019-01-28T04:24:02.928Z,4.30
2019-01-28T04:26:37.804Z,4.30
2019-01-28T04:29:12.548Z,4.30
2019-01-28T04:31:47.267Z,4.30
2019-01-28T04:34:22.074Z,4.20
2019-01-28T04:36:56.885Z,4.20
2019-01-28T04:39:31.623Z,4.20
2019-01-28T04:42:06.455Z,4.30
2019-01-28T04:44:41.268Z,4.20
2019-01-28T04:47:16.091Z,4.20
2019-01-28T04:49:50.833Z,4.30
2019-01-28T04:52:25.542Z,4.20
2019-01-28T04:55:00.294Z,4.20
2019-01-28T04:57:35.037Z,4.20
2019-01-28T05:00:12.943Z,4.30
2019-01-28T05:02:47.817Z,4.20
2019-01-28T05:05:22.807Z,4.20
2019-01-28T05:07:57.524Z,4.20
2019-01-28T05:10:32.253Z,4.30
2019-01-28T05:13:07.064Z,4.30
2019-01-28T05:15:41.854Z,4.30
2019-01-28T05:18:16.660Z,4.40
2019-01-28T05:20:51.387Z,4.30
2019-01-28T05:23:26.190Z,4.30
2019-01-28T05:26:00.906Z,4.20
2019-01-28T05:28:35.647Z,4.20
2019-01-28T05:31:10.462Z,4.20
2019-01-28T05:33:45.299Z,4.20
2019-01-28T05:36:20.103Z,4.30
2019-01-28T05:38:54.835Z,4.30
2019-01-28T05:41:29.542Z,4.20
2019-01-28T05:44:04.650Z,4.30
2019-01-28T05:46:39.455Z,4.30
2019-01-28T05:49:15.158Z,4.30
2019-01-28T05:51:49.891Z,4.30
2019-01-28T05:54:24.622Z,4.40
2019-01-28T05:57:20.955Z,4.40
2019-01-28T05:59:55.690Z,4.40
2019-01-28T06:02:30.598Z,4.40
2019-01-28T06:05:07.040Z,4.40
2019-01-28T06:07:41.799Z,4.50
2019-01-28T06:10:16.907Z,4.40
2019-01-28T06:12:51.711Z,4.40
2019-01-28T06:15:26.590Z,4.40
2019-01-28T06:18:01.471Z,4.40
2019-01-28T06:20:36.278Z,4.30
2019-01-28T06:23:10.999Z,4.30
2019-01-28T06:25:45.876Z,4.30
2019-01-28T06:28:20.728Z,4.40
2019-01-28T06:30:55.555Z,4.40
2019-01-28T06:33:30.275Z,4.40
2019-01-28T06:36:05.212Z,4.40
2019-01-28T06:38:39.982Z,4.40
2019-01-28T06:41:14.859Z,4.40
2019-01-28T06:43:49.640Z,4.40
2019-01-28T06:46:24.618Z,4.50
2019-01-28T06:48:59.355Z,4.40
2019-01-28T06:51:34.104Z,4.40
2019-01-28T06:54:08.831Z,4.40
2019-01-28T06:56:43.642Z,4.40
2019-01-28T06:59:18.473Z,4.30
2019-01-28T07:01:53.351Z,4.60
2019-01-28T07:04:28.078Z,4.40
2019-01-28T07:07:03.084Z,4.40
2019-01-28T07:09:37.922Z,4.40
2019-01-28T07:12:12.656Z,4.40
2019-01-28T07:14:47.462Z,4.30
2019-01-28T07:17:22.291Z,4.40
2019-01-28T07:19:57.211Z,4.30
2019-01-28T07:22:32.080Z,4.30
2019-01-28T07:25:07.071Z,4.30
2019-01-28T07:27:41.883Z,4.30
2019-01-28T07:30:22.950Z,4.20
2019-01-28T07:32:57.849Z,4.20
2019-01-28T07:35:32.722Z,4.20
2019-01-28T07:38:07.658Z,4.20
2019-01-28T07:40:42.466Z,4.30
2019-01-28T07:43:17.255Z,4.30
2019-01-28T07:45:52.102Z,4.30
2019-01-28T07:48:26.835Z,4.20
2019-01-28T07:51:01.703Z,4.30
2019-01-28T07:53:36.435Z,4.20
2019-01-28T07:56:11.183Z,4.20
2019-01-28T07:58:45.987Z,4.20
2019-01-28T08:01:20.719Z,4.20
2019-01-28T08:03:55.566Z,4.20
2019-01-28T08:06:30.466Z,4.20
2019-01-28T08:09:08.074Z,4.30
2019-01-28T08:11:42.806Z,4.20
2019-01-28T08:14:17.675Z,4.20
2019-01-28T08:16:52.483Z,4.30
2019-01-28T08:19:27.207Z,4.30
2019-01-28T08:22:02.139Z,4.20
2019-01-28T08:24:36.859Z,4.30
2019-01-28T08:27:11.734Z,4.30
2019-01-28T08:29:46.550Z,4.30
2019-01-28T08:32:21.286Z,4.30
2019-01-28T08:34:56.030Z,4.30
2019-01-28T08:37:30.938Z,4.20
2019-01-28T08:40:06.919Z,4.20
2019-01-28T08:42:41.739Z,4.30
2019-01-28T08:45:16.622Z,4.20
2019-01-28T08:47:51.447Z,4.40
2019-01-28T08:50:26.454Z,4.30
2019-01-28T08:53:01.339Z,4.30
2019-01-28T08:55:36.123Z,4.40
2019-01-28T08:58:10.934Z,4.40
2019-01-28T09:00:45.946Z,4.40
2019-01-28T09:03:20.679Z,4.30
2019-01-28T09:05:55.431Z,4.40
2019-01-28T09:08:30.307Z,4.30
2019-01-28T09:11:05.111Z,4.30
2019-01-28T09:13:39.918Z,4.20
2019-01-28T09:16:14.717Z,4.20
2019-01-28T09:18:49.615Z,4.20
2019-01-28T09:21:24.416Z,4.20
2019-01-28T09:23:59.222Z,4.30
2019-01-28T09:26:34.010Z,4.20
2019-01-28T09:29:08.835Z,4.20
2019-01-28T09:31:43.634Z,4.20
2019-01-28T09:34:18.367Z,4.20
2019-01-28T09:36:53.263Z,4.20
2019-01-28T09:39:28.211Z,4.20
2019-01-28T09:42:03.062Z,4.30
2019-01-28T09:44:37.867Z,4.10
2019-01-28T09:47:12.770Z,4.10
2019-01-28T09:49:47.603Z,4.20
2019-01-28T09:52:22.482Z,4.20
2019-01-28T09:54:57.194Z,4.20
2019-01-28T09:57:32.082Z,4.20
2019-01-28T10:00:12.214Z,4.10
2019-01-28T10:02:47.166Z,4.20
2019-01-28T10:05:22.043Z,4.10
2019-01-28T10:07:56.946Z,4.30
2019-01-28T10:10:31.847Z,4.30
2019-01-28T10:13:07.326Z,4.20
2019-01-28T10:15:42.192Z,4.20
2019-01-28T10:18:17.143Z,4.20
2019-01-28T10:20:52.028Z,4.20
2019-01-28T10:23:26.842Z,4.20
2019-01-28T10:26:01.702Z,4.30
2019-01-28T10:28:36.584Z,4.30
2019-01-28T10:31:11.443Z,4.60
2019-01-28T10:33:46.279Z,4.40
2019-01-28T10:36:22.698Z,4.30
2019-01-28T10:38:58.703Z,4.30
2019-01-28T10:41:33.694Z,4.30
2019-01-28T10:44:10.421Z,4.30
2019-01-28T10:46:45.377Z,4.30
2019-01-28T10:49:20.171Z,4.20
2019-01-28T10:51:55.067Z,4.30
2019-01-28T10:54:29.871Z,4.20
2019-01-28T10:57:05.107Z,4.20
2019-01-28T10:59:39.912Z,4.10
2019-01-28T11:02:14.702Z,4.10
2019-01-28T11:04:49.411Z,4.20
2019-01-28T11:07:24.319Z,4.20
2019-01-28T11:09:59.179Z,4.20
2019-01-28T11:12:34.066Z,4.20
2019-01-28T11:15:11.634Z,4.30
2019-01-28T11:17:46.524Z,4.30
2019-01-28T11:20:21.395Z,4.20
2019-01-28T11:22:56.260Z,4.20
2019-01-28T11:25:31.458Z,4.20
2019-01-28T11:28:06.337Z,4.20
2019-01-28T11:30:49.010Z,4.30
2019-01-28T11:33:23.984Z,4.30
2019-01-28T11:36:05.105Z,4.30
2019-01-28T11:38:35.425Z,4.20
2019-01-28T11:41:10.317Z,4.20
2019-01-28T11:43:45.472Z,4.20
2019-01-28T11:46:21.516Z,4.10
2019-01-28T11:48:56.482Z,4.10
2019-01-28T11:51:31.217Z,4.10
2019-01-28T11:54:06.191Z,4.10
2019-01-28T11:56:40.919Z,4.10
2019-01-28T11:59:15.634Z,4.10
2019-01-28T12:01:50.435Z,4.20
2019-01-28T12:04:25.315Z,4.10
2019-01-28T12:07:00.063Z,4.20
2019-01-28T12:09:34.779Z,4.30
2019-01-28T12:12:09.595Z,4.20
2019-01-28T12:14:44.453Z,4.20
2019-01-28T12:17:19.183Z,4.20
2019-01-28T12:19:53.991Z,4.20
2019-01-28T12:22:28.723Z,4.10
2019-01-28T12:25:03.815Z,4.10
2019-01-28T12:27:38.731Z,4.00
2019-01-28T12:30:17.110Z,4.10
2019-01-28T12:32:51.990Z,4.20
2019-01-28T12:35:26.931Z,4.20
2019-01-28T12:38:01.711Z,4.10
2019-01-28T12:40:36.518Z,4.10
2019-01-28T12:43:11.314Z,4.10
2019-01-28T12:45:46.215Z,4.20
2019-01-28T12:48:22.987Z,4.00
2019-01-28T12:50:57.499Z,4.10
2019-01-28T12:53:32.366Z,4.10
2019-01-28T12:56:07.170Z,4.10
2019-01-28T12:58:41.955Z,4.10
2019-01-28T13:01:16.755Z,4.10
2019-01-28T13:03:51.547Z,4.20
2019-01-28T13:06:26.490Z,4.10
2019-01-28T13:09:01.216Z,4.10
2019-01-28T13:11:37.723Z,4.10
2019-01-28T13:14:12.456Z,4.20
2019-01-28T13:16:47.268Z,4.10
2019-01-28T13:19:29.890Z,4.10
2019-01-28T13:21:58.719Z,4.20
2019-01-28T13:24:33.494Z,4.20
2019-01-28T13:27:08.274Z,4.20
2019-01-28T13:29:43.002Z,4.00
2019-01-28T13:32:17.965Z,4.00
2019-01-28T13:34:52.679Z,4.00
2019-01-28T13:37:27.414Z,4.00
2019-01-28T13:40:02.219Z,4.00
2019-01-28T13:42:37.240Z,3.90
2019-01-28T13:45:13.230Z,4.00
2019-01-28T13:47:48.752Z,4.10
2019-01-28T13:50:23.671Z,4.00
2019-01-28T13:52:58.554Z,4.00
2019-01-28T13:55:33.442Z,4.00
2019-01-28T13:58:08.322Z,4.10
2019-01-28T14:00:43.139Z,4.00
2019-01-28T14:03:19.128Z,4.10
2019-01-28T14:05:54.030Z,4.10
2019-01-28T14:08:28.743Z,4.10
2019-01-28T14:11:05.115Z,4.20
2019-01-28T14:13:39.913Z,4.20
2019-01-28T14:16:14.659Z,4.20
2019-01-28T14:18:49.467Z,4.10
2019-01-28T14:21:24.289Z,4.10
2019-01-28T14:23:59.015Z,4.00
2019-01-28T14:26:33.826Z,4.00
2019-01-28T14:29:08.690Z,4.00
2019-01-28T14:31:43.544Z,4.10
2019-01-28T14:34:19.643Z,4.10
2019-01-28T14:36:55.431Z,4.00
2019-01-28T14:39:30.176Z,4.00
2019-01-28T14:42:05.024Z,4.00
2019-01-28T14:44:39.735Z,4.00
2019-01-28T14:47:14.620Z,4.10
2019-01-28T14:49:54.510Z,4.00
2019-01-28T14:52:26.123Z,4.10
2019-01-28T14:55:07.977Z,4.00
2019-01-28T14:57:47.197Z,3.90
2019-01-28T15:00:45.447Z,3.90
2019-01-28T15:03:22.768Z,3.80
2019-01-28T15:05:57.735Z,3.90
2019-01-28T15:08:32.536Z,3.80
2019-01-28T15:11:07.410Z,3.80
2019-01-28T15:13:42.383Z,3.80
2019-01-28T15:16:17.263Z,3.80
2019-01-28T15:18:52.147Z,3.80
2019-01-28T15:21:26.961Z,3.90
2019-01-28T15:24:01.957Z,4.00
2019-01-28T15:26:36.768Z,4.00
2019-01-28T15:29:11.710Z,3.90
2019-01-28T15:31:46.666Z,4.00
2019-01-28T15:34:21.460Z,3.90
2019-01-28T15:36:56.316Z,4.00
2019-01-28T15:39:31.262Z,4.00
2019-01-28T15:42:06.228Z,4.00
2019-01-28T15:44:40.942Z,4.10
2019-01-28T15:47:15.897Z,4.10
2019-01-28T15:49:50.678Z,4.10
2019-01-28T15:52:25.546Z,4.60
2019-01-28T15:55:00.366Z,4.40
2019-01-28T15:57:35.096Z,4.30
2019-01-28T16:00:13.535Z,4.40
2019-01-28T16:02:48.417Z,4.40
2019-01-28T16:05:23.403Z,4.40
2019-01-28T16:07:58.299Z,4.40
2019-01-28T16:10:33.170Z,4.40
2019-01-28T16:13:09.095Z,4.40
2019-01-28T16:15:46.410Z,4.40
2019-01-28T16:18:21.379Z,4.50
2019-01-28T16:20:56.170Z,4.90
2019-01-28T16:23:30.932Z,4.90
2019-01-28T16:26:06.046Z,4.80
2019-01-28T16:28:40.939Z,4.70
2019-01-28T16:31:15.674Z,4.70
2019-01-28T16:33:50.403Z,4.70
2019-01-28T16:36:25.275Z,4.70
2019-01-28T16:39:00.155Z,4.80
2019-01-28T16:41:35.006Z,4.70
2019-01-28T16:44:10.867Z,4.70
2019-01-28T16:46:45.671Z,4.70
2019-01-28T16:49:20.478Z,4.50
2019-01-28T16:51:55.278Z,4.60
2019-01-28T16:54:31.059Z,4.60
2019-01-28T16:57:06.082Z,4.60
2019-01-28T16:59:41.087Z,4.70
2019-01-28T17:02:16.046Z,4.70
2019-01-28T17:04:50.844Z,4.70
2019-01-28T17:07:25.578Z,4.80
2019-01-28T17:10:01.492Z,4.80
2019-01-28T17:12:36.474Z,4.70
2019-01-28T17:15:12.455Z,4.80
2019-01-28T17:17:47.358Z,4.80
2019-01-28T17:20:34.846Z,4.80
2019-01-28T17:23:03.530Z,4.90
2019-01-28T17:25:43.279Z,5.00
2019-01-28T17:28:18.247Z,5.50
2019-01-28T17:30:53.050Z,5.30
2019-01-28T17:33:27.978Z,6.30
2019-01-28T17:36:02.823Z,5.90
2019-01-28T17:38:37.599Z,5.70
2019-01-28T17:41:12.450Z,5.50
2019-01-28T17:43:47.182Z,5.40
2019-01-28T17:46:22.246Z,5.40
2019-01-28T17:48:57.070Z,5.40
2019-01-28T17:51:31.811Z,5.40
2019-01-28T17:54:06.749Z,5.40
2019-01-28T17:56:41.670Z,5.30
2019-01-28T17:59:16.530Z,5.30
2019-01-28T18:01:52.327Z,5.30
2019-01-28T18:04:27.209Z,5.30
2019-01-28T18:07:02.035Z,5.30
2019-01-28T18:09:36.762Z,5.60
2019-01-28T18:12:11.735Z,5.40
2019-01-28T18:14:46.526Z,5.40
2019-01-28T18:17:21.287Z,5.30
2019-01-28T18:19:56.150Z,5.30
2019-01-28T18:22:41.634Z,5.30
2019-01-28T18:25:23.123Z,5.30
2019-01-28T18:27:58.930Z,5.40
2019-01-28T18:30:45.680Z,5.30
2019-01-28T18:33:20.595Z,5.30
2019-01-28T18:35:55.608Z,5.30
2019-01-28T18:38:30.536Z,5.30
2019-01-28T18:41:05.962Z,5.30
2019-01-28T18:43:40.939Z,5.30
2019-01-28T18:46:17.582Z,5.30
2019-01-28T18:48:52.872Z,5.20
2019-01-28T18:51:27.854Z,5.30
2019-01-28T18:54:02.714Z,5.30
2019-01-28T18:56:37.567Z,5.20
2019-01-28T18:59:12.446Z,5.20
2019-01-28T19:01:47.185Z,5.20
2019-01-28T19:04:21.895Z,5.30
2019-01-28T19:07:27.168Z,5.30
2019-01-28T19:10:24.141Z,5.40
2019-01-28T19:13:19.027Z,5.40
2019-01-28T19:16:11.688Z,5.40
2019-01-28T19:19:11.381Z,5.40
2019-01-28T19:21:52.391Z,5.50
2019-01-28T19:24:27.250Z,5.60
2019-01-28T19:27:02.371Z,5.60
2019-01-28T19:29:37.123Z,5.50
2019-01-28T19:32:11.926Z,5.60
2019-01-28T19:34:46.683Z,5.60
2019-01-28T19:37:21.551Z,5.50
2019-01-28T19:39:56.297Z,5.30
2019-01-28T19:42:31.107Z,5.30
2019-01-28T19:45:09.626Z,5.40
2019-01-28T19:47:44.589Z,5.30
2019-01-28T19:50:22.537Z,5.40
2019-01-28T19:52:58.250Z,5.40
2019-01-28T19:55:33.110Z,5.50
2019-01-28T19:58:08.038Z,5.50
2019-01-28T20:00:42.931Z,5.40
2019-01-28T20:03:17.848Z,5.50
2019-01-28T20:05:53.431Z,5.50
2019-01-28T20:08:28.303Z,5.40
2019-01-28T20:11:03.214Z,5.40
2019-01-28T20:13:38.023Z,5.30
2019-01-28T20:16:12.931Z,5.30
2019-01-28T20:18:47.792Z,5.50
2019-01-28T20:21:23.886Z,5.50
2019-01-28T20:23:58.766Z,5.50
2019-01-28T20:26:33.548Z,5.40
2019-01-28T20:29:08.386Z,5.50
2019-01-28T20:31:43.146Z,5.50
2019-01-28T20:34:17.971Z,5.50
2019-01-28T20:36:52.815Z,5.50
2019-01-28T20:39:27.634Z,5.50
2019-01-28T20:42:02.440Z,5.60
2019-01-28T20:44:37.160Z,5.50
2019-01-28T20:47:11.994Z,5.40
2019-01-28T20:49:46.857Z,5.40
2019-01-28T20:52:21.764Z,5.30
2019-01-28T20:54:56.553Z,6.60
2019-01-28T20:57:31.361Z,6.10
2019-01-28T21:00:10.536Z,5.90
2019-01-28T21:02:45.626Z,5.80
2019-01-28T21:05:20.620Z,5.60
2019-01-28T21:07:55.579Z,5.40
2019-01-28T21:10:30.516Z,5.60
2019-01-28T21:13:05.495Z,5.60
2019-01-28T21:15:40.437Z,5.50
2019-01-28T21:18:15.419Z,5.40
2019-01-28T21:20:50.299Z,5.40
2019-01-28T21:23:25.121Z,5.40
2019-01-28T21:25:59.974Z,5.20
2019-01-28T21:28:34.795Z,5.20
2019-01-28T21:31:09.503Z,5.30
2019-01-28T21:33:44.313Z,5.40
2019-01-28T21:36:47.454Z,5.50
2019-01-28T21:39:22.186Z,5.30
2019-01-28T21:41:56.911Z,5.40
2019-01-28T21:44:31.646Z,5.40
2019-01-28T21:47:06.791Z,5.40
2019-01-28T21:49:41.776Z,5.30
2019-01-28T21:52:16.575Z,5.40
2019-01-28T21:54:51.312Z,5.50
2019-01-28T21:57:26.119Z,5.50
2019-01-28T22:00:00.867Z,5.40
2019-01-28T22:02:36.706Z,5.40
2019-01-28T22:05:11.602Z,5.30
2019-01-28T22:07:46.471Z,5.40
2019-01-28T22:10:21.287Z,5.30
2019-01-28T22:12:56.003Z,5.20
2019-01-28T22:15:30.771Z,5.30
2019-01-28T22:18:05.919Z,5.30
2019-01-28T22:20:40.650Z,5.30
2019-01-28T22:23:15.466Z,5.30
2019-01-28T22:25:50.291Z,5.30
2019-01-28T22:28:25.086Z,5.40
2019-01-28T22:30:59.819Z,5.30
2019-01-28T22:33:34.559Z,5.30
2019-01-28T22:36:09.443Z,5.30
2019-01-28T22:38:45.031Z,5.30
2019-01-28T22:41:20.634Z,5.40
2019-01-28T22:43:55.422Z,5.30
2019-01-28T22:46:30.335Z,5.30
2019-01-28T22:49:05.198Z,5.40
2019-01-28T22:51:40.020Z,5.40
2019-01-28T22:54:14.771Z,5.30
2019-01-28T22:56:49.491Z,5.40
2019-01-28T22:59:24.296Z,5.30
2019-01-28T23:02:00.140Z,5.20
2019-01-28T23:04:34.887Z,4.90
2019-01-28T23:07:09.635Z,5.00
2019-01-28T23:09:44.354Z,5.00
2019-01-28T23:12:19.234Z,4.90
2019-01-28T23:14:54.045Z,5.10
2019-01-28T23:17:28.846Z,5.00
2019-01-28T23:20:03.845Z,5.00
2019-01-28T23:22:38.639Z,5.00
2019-01-28T23:25:13.442Z,4.90
2019-01-28T23:27:48.231Z,4.90
2019-01-28T23:30:23.107Z,4.80
2019-01-28T23:32:57.971Z,4.90
2019-01-28T23:35:32.823Z,4.80
2019-01-28T23:38:07.681Z,4.70
2019-01-28T23:40:42.491Z,4.80
2019-01-28T23:43:17.440Z,4.80
2019-01-28T23:45:52.324Z,4.70
2019-01-28T23:48:27.035Z,4.80
2019-01-28T23:51:01.914Z,4.80
2019-01-28T23:53:36.707Z,4.70
2019-01-28T23:56:11.443Z,4.70
2019-01-28T23:58:46.238Z,4.70
